首页
METAR-TAF:

METAR-TAF

机场 :

Sioux Gateway Airport (Col. Bud Day Field)

蘇城, 艾奥瓦州, 美国

纬度: 42-24-09N, 经度: 096-23-04W, 海拔: 335米

当前天气观测

该预报发布于1小时和3分钟前的06:52 UTC
风速4节,风向东转东南
温度 20°C
湿度 88%
气压 1007 hPa
能見度: 16.1公里
天空无云

METAR: KSUX 130652Z AUTO 12004KT 10SM CLR 20/18 A2973 RMK AO2 SLP059 T02000183

时间: 02:55 (07:55 UTC)

预报

该预报发布于2小时和25分钟前的05:30 UTC
预报有效从13日的 06点(UTC)到 14日的 06点(UTC)
风速6节,风向多变
能見度: 10公里
散云层高于10000英尺
从 13日的 1300点(UTC)
风速8节,风向北转东北
能見度: 10公里
散云层高于12000英尺
从 13日的 1600点(UTC)
风速12节,风向东北,有时为19节阵风
能見度: 10公里
少量云层高于7000英尺
从 13日的 2000点(UTC)
风速11节,风向,有时为18节阵风
能見度: 10公里
少量云层高于10000英尺
从 14日的 0100点(UTC)
风速7节,风向北转东北
能見度: 10公里
少量云层高于20000英尺

TAF: KSUX 130530Z 1306/1406 VRB06KT P6SM SCT100 FM131300 03008KT P6SM SCT120 FM131600 04012G19KT P6SM FEW070 FM132000 01011G18KT P6SM FEW100 FM140100 02007KT P6SM FEW200

超过4000个机场的气象观测和天气预报(METAR&TAF报告)。

可查询的气象台以黄色和红色小点在地图上表示。

将鼠标移到小点上方,可查看气象台名称。

然后点击查看天气观测和预报。

如需切换地图:点击带黑十字的绿色按钮放大地图;点击带横线的绿色按钮缩小地图;或者点击绿色箭头查看邻近地区的地图。


METAR-TAF: